createdAt,value
2019-04-25T00:00:13.279Z,16.30
2019-04-25T00:02:46.519Z,16.30
2019-04-25T00:05:18.411Z,16.30
2019-04-25T00:07:49.444Z,16.30
2019-04-25T00:10:22.036Z,16.20
2019-04-25T00:12:53.386Z,16.10
2019-04-25T00:15:24.636Z,16.00
2019-04-25T00:17:56.092Z,15.90
2019-04-25T00:20:28.869Z,15.80
2019-04-25T00:23:11.765Z,15.70
2019-04-25T00:26:14.349Z,15.50
2019-04-25T00:28:46.787Z,15.40
2019-04-25T00:31:18.159Z,15.30
2019-04-25T00:33:49.584Z,15.20
2019-04-25T00:36:21.796Z,15.20
2019-04-25T00:38:53.308Z,15.10
2019-04-25T00:41:27.659Z,15.00
2019-04-25T00:43:58.841Z,15.00
2019-04-25T00:46:29.943Z,15.00
2019-04-25T00:49:02.516Z,14.90
2019-04-25T00:51:33.620Z,14.80
2019-04-25T00:54:04.852Z,14.80
2019-04-25T00:56:36.017Z,14.80
2019-04-25T00:59:24.767Z,14.70
2019-04-25T01:02:11.813Z,14.70
2019-04-25T01:04:43.893Z,14.50
2019-04-25T01:07:15.641Z,14.50
2019-04-25T01:09:47.696Z,14.50
2019-04-25T01:12:21.605Z,14.40
2019-04-25T01:14:53.661Z,14.40
2019-04-25T01:17:25.189Z,14.20
2019-04-25T01:19:57.995Z,14.20
2019-04-25T01:22:28.997Z,14.10
2019-04-25T01:25:00.584Z,14.00
2019-04-25T01:27:33.215Z,14.00
2019-04-25T01:30:06.134Z,13.90
2019-04-25T01:32:38.737Z,13.90
2019-04-25T01:35:20.373Z,13.80
2019-04-25T01:38:08.576Z,13.80
2019-04-25T01:40:55.681Z,13.80
2019-04-25T01:43:43.682Z,13.80
2019-04-25T01:46:15.491Z,13.70
2019-04-25T01:48:48.567Z,13.70
2019-04-25T01:51:20.376Z,13.60
2019-04-25T01:53:52.597Z,13.60
2019-04-25T01:56:24.928Z,13.60
2019-04-25T01:58:56.143Z,13.50
2019-04-25T02:01:27.201Z,13.50
2019-04-25T02:03:59.047Z,13.60
2019-04-25T02:06:30.257Z,13.50
2019-04-25T02:09:03.832Z,13.50
2019-04-25T02:11:50.928Z,13.50
2019-04-25T02:14:23.844Z,13.50
2019-04-25T02:16:56.279Z,13.50
2019-04-25T02:19:28.451Z,13.40
2019-04-25T02:21:59.887Z,13.40
2019-04-25T02:24:33.756Z,13.40
2019-04-25T02:27:05.066Z,13.40
2019-04-25T02:29:36.158Z,13.30
2019-04-25T02:32:09.276Z,13.40
2019-04-25T02:34:40.402Z,13.30
2019-04-25T02:37:14.628Z,13.30
2019-04-25T02:39:45.950Z,13.30
2019-04-25T02:42:17.337Z,13.20
2019-04-25T02:45:00.157Z,13.20
2019-04-25T02:47:48.432Z,13.10
2019-04-25T02:50:34.356Z,13.10
2019-04-25T02:53:37.366Z,13.10
2019-04-25T02:56:26.183Z,13.10
2019-04-25T02:58:41.185Z,13.10
2019-04-25T03:01:21.357Z,13.10
2019-04-25T03:03:46.919Z,13.00
2019-04-25T03:06:18.234Z,13.00
2019-04-25T03:08:49.745Z,13.00
2019-04-25T03:11:21.209Z,12.90
2019-04-25T03:13:54.766Z,12.90
2019-04-25T03:16:26.063Z,12.80
2019-04-25T03:19:09.935Z,12.80
2019-04-25T03:21:44.990Z,12.80
2019-04-25T03:24:16.806Z,12.70
2019-04-25T03:26:48.602Z,12.70
2019-04-25T03:29:20.240Z,12.70
2019-04-25T03:31:52.121Z,12.60
2019-04-25T03:34:25.375Z,12.60
2019-04-25T03:36:57.324Z,12.60
2019-04-25T03:39:29.244Z,12.50
2019-04-25T03:42:01.354Z,12.50
2019-04-25T03:44:34.563Z,12.50
2019-04-25T03:47:07.754Z,12.50
2019-04-25T03:49:40.431Z,12.50
2019-04-25T03:52:13.772Z,12.40
2019-04-25T03:54:45.351Z,12.40
2019-04-25T03:57:17.031Z,12.40
2019-04-25T03:59:48.181Z,12.40
2019-04-25T04:02:19.843Z,12.40
2019-04-25T04:04:51.416Z,12.40
2019-04-25T04:07:26.247Z,12.40
2019-04-25T04:09:57.500Z,12.30
2019-04-25T04:12:28.690Z,12.30
2019-04-25T04:14:59.927Z,12.30
2019-04-25T04:17:55.147Z,12.30
2019-04-25T04:20:45.650Z,12.30
2019-04-25T04:23:35.964Z,12.30
2019-04-25T04:26:07.709Z,12.40
2019-04-25T04:28:38.998Z,12.40
2019-04-25T04:31:10.271Z,12.50
2019-04-25T04:33:43.042Z,12.60
2019-04-25T04:36:15.034Z,12.60
2019-04-25T04:38:47.543Z,12.70
2019-04-25T04:41:19.242Z,12.80
2019-04-25T04:43:50.887Z,12.90
2019-04-25T04:46:24.023Z,13.10
2019-04-25T04:48:56.048Z,13.10
2019-04-25T04:51:27.712Z,13.20
2019-04-25T04:53:58.921Z,13.40
2019-04-25T04:56:30.931Z,13.50
2019-04-25T04:59:03.649Z,13.60
2019-04-25T05:01:37.758Z,13.70
2019-04-25T05:04:19.105Z,13.90
2019-04-25T05:07:21.746Z,14.00
2019-04-25T05:09:53.893Z,14.10
2019-04-25T05:12:25.247Z,14.20
2019-04-25T05:14:56.401Z,14.30
2019-04-25T05:17:29.141Z,14.40
2019-04-25T05:20:01.293Z,14.50
2019-04-25T05:22:33.377Z,14.60
2019-04-25T05:25:04.791Z,14.70
2019-04-25T05:27:50.786Z,14.80
2019-04-25T05:30:14.586Z,15.00
2019-04-25T05:32:45.788Z,15.00
2019-04-25T05:35:17.818Z,15.10
2019-04-25T05:37:49.571Z,15.20
2019-04-25T05:40:22.099Z,15.30
2019-04-25T05:43:08.453Z,15.40
2019-04-25T05:45:40.211Z,15.50
2019-04-25T05:48:11.881Z,15.70
2019-04-25T05:50:43.821Z,15.80
2019-04-25T05:53:16.351Z,15.90
2019-04-25T05:55:48.087Z,16.00
2019-04-25T05:58:20.393Z,16.10
2019-04-25T06:00:54.256Z,16.20
2019-04-25T06:03:27.529Z,16.20
2019-04-25T06:05:59.526Z,16.40
2019-04-25T06:08:34.143Z,16.60
2019-04-25T06:11:23.918Z,16.60
2019-04-25T06:14:05.130Z,16.70
2019-04-25T06:16:38.619Z,16.90
2019-04-25T06:19:38.895Z,16.90
2019-04-25T06:22:15.137Z,16.90
2019-04-25T06:24:54.235Z,16.90
2019-04-25T06:27:30.896Z,16.90
2019-04-25T06:30:25.025Z,16.90
2019-04-25T06:32:57.646Z,16.90
2019-04-25T06:35:29.675Z,17.00
2019-04-25T06:38:03.579Z,17.00
2019-04-25T06:40:35.939Z,17.10
2019-04-25T06:43:07.921Z,17.10
2019-04-25T06:46:10.280Z,17.20
2019-04-25T06:48:56.644Z,17.30
2019-04-25T06:51:46.435Z,17.50
2019-04-25T06:54:19.065Z,17.60
2019-04-25T06:56:51.310Z,17.80
2019-04-25T06:59:25.973Z,17.90
2019-04-25T07:01:56.728Z,18.00
2019-04-25T07:04:29.222Z,18.20
2019-04-25T07:07:10.522Z,18.30
2019-04-25T07:09:36.398Z,18.40
2019-04-25T07:12:08.698Z,18.50
2019-04-25T07:14:40.808Z,18.60
2019-04-25T07:17:14.288Z,18.70
2019-04-25T07:19:46.738Z,18.80
2019-04-25T07:22:18.844Z,19.00
2019-04-25T07:24:50.965Z,19.10
2019-04-25T07:27:54.558Z,19.30
2019-04-25T07:30:50.052Z,19.60
2019-04-25T07:33:26.898Z,19.70
2019-04-25T07:35:58.169Z,20.00
2019-04-25T07:38:31.133Z,20.10
2019-04-25T07:41:03.534Z,20.20
2019-04-25T07:43:36.323Z,20.40
2019-04-25T07:46:09.913Z,20.50
2019-04-25T07:48:43.702Z,20.70
2019-04-25T07:51:16.543Z,20.70
2019-04-25T07:53:48.847Z,20.80
2019-04-25T07:56:21.057Z,20.90
2019-04-25T07:58:55.889Z,21.00
2019-04-25T08:01:29.273Z,21.20
2019-04-25T08:04:03.499Z,21.50
2019-04-25T08:06:35.788Z,21.70
2019-04-25T08:09:11.300Z,22.00
2019-04-25T08:11:44.295Z,22.20
2019-04-25T08:14:24.798Z,22.40
2019-04-25T08:16:59.170Z,22.60
2019-04-25T08:19:31.168Z,22.70
2019-04-25T08:22:03.735Z,22.80
2019-04-25T08:24:39.109Z,23.00
2019-04-25T08:27:11.012Z,23.30
2019-04-25T08:29:44.853Z,23.40
2019-04-25T08:32:16.214Z,23.50
2019-04-25T08:34:47.904Z,23.80
2019-04-25T08:37:21.161Z,24.10
2019-04-25T08:39:53.891Z,24.40
2019-04-25T08:42:25.777Z,24.40
2019-04-25T08:44:57.421Z,24.60
2019-04-25T08:47:29.375Z,24.80
2019-04-25T08:50:24.620Z,25.10
2019-04-25T08:52:44.817Z,25.30
2019-04-25T08:55:48.685Z,25.70
2019-04-25T08:58:43.638Z,25.90
2019-04-25T09:01:24.406Z,26.00
2019-04-25T09:04:05.126Z,26.00
2019-04-25T09:06:37.563Z,25.90
2019-04-25T09:09:10.795Z,25.80
2019-04-25T09:11:44.655Z,26.00
2019-04-25T09:14:16.405Z,26.10
2019-04-25T09:16:48.485Z,26.00
2019-04-25T09:19:20.853Z,26.10
2019-04-25T09:21:53.385Z,26.40
2019-04-25T09:24:25.167Z,26.60
2019-04-25T09:26:56.727Z,26.80
2019-04-25T09:29:29.076Z,26.90
2019-04-25T09:32:03.747Z,26.80
2019-04-25T09:34:36.200Z,26.60
2019-04-25T09:37:09.558Z,26.60
2019-04-25T09:40:06.446Z,27.00
2019-04-25T09:42:39.379Z,26.90
2019-04-25T09:45:30.014Z,26.80
2019-04-25T09:48:08.594Z,26.80
2019-04-25T09:50:46.483Z,27.00
2019-04-25T09:53:23.192Z,27.30
2019-04-25T09:56:20.920Z,27.70
2019-04-25T09:59:06.405Z,27.70
2019-04-25T10:01:40.140Z,27.50
2019-04-25T10:04:12.145Z,27.50
2019-04-25T10:06:45.740Z,27.70
2019-04-25T10:09:17.793Z,27.70
2019-04-25T10:11:54.515Z,27.50
2019-04-25T10:15:04.449Z,27.40
2019-04-25T10:17:37.600Z,27.40
2019-04-25T10:20:10.137Z,27.50
2019-04-25T10:22:42.696Z,27.60
2019-04-25T10:25:16.608Z,27.60
2019-04-25T10:27:49.364Z,27.70
2019-04-25T10:30:23.778Z,28.00
2019-04-25T10:32:55.172Z,28.10
2019-04-25T10:35:27.248Z,28.30
2019-04-25T10:37:59.410Z,28.40
2019-04-25T10:40:33.858Z,28.40
2019-04-25T10:43:06.625Z,28.30
2019-04-25T10:45:39.782Z,28.40
2019-04-25T10:48:13.701Z,28.60
2019-04-25T10:50:47.049Z,28.40
2019-04-25T10:53:20.760Z,28.20
2019-04-25T10:55:52.835Z,28.30
2019-04-25T10:58:25.107Z,28.90
2019-04-25T11:00:57.526Z,29.30
2019-04-25T11:03:45.542Z,29.50
2019-04-25T11:06:20.433Z,29.70
2019-04-25T11:08:55.465Z,29.90
2019-04-25T11:11:27.724Z,29.70
2019-04-25T11:14:00.464Z,29.40
2019-04-25T11:16:33.417Z,29.20
2019-04-25T11:19:08.715Z,29.20
2019-04-25T11:21:44.280Z,29.40
2019-04-25T11:24:15.850Z,29.50
2019-04-25T11:26:50.102Z,29.70
2019-04-25T11:29:21.303Z,30.10
2019-04-25T11:31:53.428Z,30.00
2019-04-25T11:34:25.902Z,30.10
2019-04-25T11:36:58.247Z,30.50
2019-04-25T11:39:46.141Z,30.90
2019-04-25T11:42:18.285Z,31.00
2019-04-25T11:44:50.520Z,31.20
2019-04-25T11:47:22.268Z,31.50
2019-04-25T11:49:55.906Z,31.70
2019-04-25T11:52:30.206Z,31.60
2019-04-25T11:55:04.086Z,31.50
2019-04-25T11:57:35.989Z,31.50
2019-04-25T12:00:21.355Z,31.60
2019-04-25T12:02:43.940Z,31.70
2019-04-25T12:05:16.096Z,31.70
2019-04-25T12:07:50.039Z,31.70
2019-04-25T12:10:24.238Z,31.60
2019-04-25T12:12:56.056Z,31.60
2019-04-25T12:15:28.278Z,31.80
2019-04-25T12:18:00.535Z,32.10
2019-04-25T12:20:34.040Z,31.70
2019-04-25T12:23:10.376Z,31.10
2019-04-25T12:25:40.337Z,31.20
2019-04-25T12:28:14.175Z,31.30
2019-04-25T12:30:47.336Z,31.30
2019-04-25T12:33:21.589Z,31.30
2019-04-25T12:35:54.136Z,30.80
2019-04-25T12:38:26.810Z,30.40
2019-04-25T12:41:00.211Z,29.90
2019-04-25T12:43:33.943Z,29.30
2019-04-25T12:46:21.523Z,29.00
2019-04-25T12:48:53.674Z,28.80
2019-04-25T12:51:25.974Z,29.00
2019-04-25T12:53:58.261Z,29.70
2019-04-25T12:56:30.053Z,30.30
2019-04-25T12:59:01.857Z,30.30
2019-04-25T13:01:33.673Z,29.90
2019-04-25T13:04:06.018Z,29.80
2019-04-25T13:06:39.577Z,29.60
2019-04-25T13:09:14.239Z,29.80
2019-04-25T13:11:46.199Z,30.20
2019-04-25T13:14:20.116Z,30.60
2019-04-25T13:16:52.165Z,30.50
2019-04-25T13:19:26.428Z,30.00
2019-04-25T13:22:00.989Z,29.50
2019-04-25T13:24:34.475Z,28.90
2019-04-25T13:27:14.202Z,28.50
2019-04-25T13:30:06.796Z,28.40
2019-04-25T13:33:17.077Z,28.30
2019-04-25T13:35:56.208Z,28.50
2019-04-25T13:38:28.476Z,28.50
2019-04-25T13:41:01.610Z,28.40
2019-04-25T13:43:33.964Z,28.30
2019-04-25T13:46:07.409Z,28.30
2019-04-25T13:48:40.478Z,29.10
2019-04-25T13:51:14.151Z,30.10
2019-04-25T13:53:46.281Z,31.20
2019-04-25T13:56:18.904Z,32.00
2019-04-25T13:58:50.688Z,32.40
2019-04-25T14:01:23.031Z,32.60
2019-04-25T14:03:55.529Z,33.10
2019-04-25T14:06:27.052Z,33.30
2019-04-25T14:08:58.858Z,33.00
2019-04-25T14:11:32.709Z,32.80
2019-04-25T14:14:04.774Z,32.80
2019-04-25T14:16:54.606Z,32.10
2019-04-25T14:19:50.365Z,31.10
2019-04-25T14:22:22.482Z,30.60
2019-04-25T14:24:55.172Z,31.30
2019-04-25T14:27:28.029Z,32.20
2019-04-25T14:30:00.270Z,32.80
2019-04-25T14:32:33.923Z,33.20
2019-04-25T14:35:06.033Z,32.80
2019-04-25T14:37:39.690Z,32.50
2019-04-25T14:40:11.673Z,33.00
2019-04-25T14:42:43.240Z,33.60
2019-04-25T14:45:44.397Z,34.00
2019-04-25T14:48:18.853Z,34.10
2019-04-25T14:50:51.052Z,33.80
2019-04-25T14:53:24.153Z,33.40
2019-04-25T14:56:17.753Z,32.60
2019-04-25T14:58:49.819Z,31.60
2019-04-25T15:01:25.975Z,30.80
2019-04-25T15:03:57.860Z,30.30
2019-04-25T15:06:32.636Z,30.10
2019-04-25T15:09:05.697Z,30.60
2019-04-25T15:11:38.509Z,31.10
2019-04-25T15:14:11.085Z,31.50
2019-04-25T15:16:43.812Z,31.70
2019-04-25T15:19:17.535Z,31.80
2019-04-25T15:21:49.435Z,31.00
2019-04-25T15:24:20.947Z,30.20
2019-04-25T15:26:54.649Z,29.90
2019-04-25T15:30:00.197Z,30.20
2019-04-25T15:32:35.181Z,30.30
2019-04-25T15:35:08.414Z,30.40
2019-04-25T15:37:48.953Z,30.70
2019-04-25T15:40:35.473Z,30.80
2019-04-25T15:43:26.217Z,30.70
2019-04-25T15:46:27.641Z,30.60
2019-04-25T15:49:00.828Z,30.50
2019-04-25T15:51:42.085Z,30.30
2019-04-25T15:54:15.670Z,30.30
2019-04-25T15:56:47.110Z,30.20
2019-04-25T15:59:18.843Z,29.90
2019-04-25T16:01:50.391Z,29.70
2019-04-25T16:04:22.253Z,29.50
2019-04-25T16:06:53.812Z,29.40
2019-04-25T16:09:29.753Z,28.90
2019-04-25T16:12:01.328Z,28.50
2019-04-25T16:14:33.417Z,28.40
2019-04-25T16:17:04.973Z,28.50
2019-04-25T16:19:36.838Z,28.60
2019-04-25T16:22:08.288Z,28.70
2019-04-25T16:24:39.773Z,29.00
2019-04-25T16:27:11.977Z,29.40
2019-04-25T16:29:43.365Z,29.30
2019-04-25T16:32:20.839Z,29.20
2019-04-25T16:34:52.879Z,29.00
2019-04-25T16:37:26.025Z,28.90
2019-04-25T16:39:57.373Z,29.10
2019-04-25T16:42:30.345Z,28.90
2019-04-25T16:45:09.071Z,28.70
2019-04-25T16:47:41.814Z,28.70
2019-04-25T16:50:17.615Z,28.60
2019-04-25T16:52:51.458Z,28.60
2019-04-25T16:55:23.877Z,28.50
2019-04-25T16:57:55.711Z,28.00
2019-04-25T17:00:51.252Z,27.70
2019-04-25T17:03:24.256Z,27.50
2019-04-25T17:05:55.755Z,27.00
2019-04-25T17:08:27.576Z,26.70
2019-04-25T17:11:01.036Z,26.50
2019-04-25T17:13:34.277Z,26.30
2019-04-25T17:16:23.028Z,26.10
2019-04-25T17:18:58.866Z,25.90
2019-04-25T17:21:31.187Z,25.60
2019-04-25T17:24:02.987Z,25.20
2019-04-25T17:26:34.855Z,25.00
2019-04-25T17:29:09.860Z,24.70
2019-04-25T17:31:54.774Z,24.50
2019-04-25T17:34:48.236Z,24.40
2019-04-25T17:37:23.508Z,24.20
2019-04-25T17:39:57.338Z,24.00
2019-04-25T17:42:29.142Z,23.80
2019-04-25T17:45:00.912Z,23.70
2019-04-25T17:47:34.608Z,23.50
2019-04-25T17:50:05.924Z,23.40
2019-04-25T17:52:37.042Z,23.30
2019-04-25T17:55:08.511Z,23.10
2019-04-25T17:57:40.195Z,22.90
2019-04-25T18:00:18.785Z,22.80
2019-04-25T18:02:58.655Z,22.70
2019-04-25T18:05:24.335Z,22.50
2019-04-25T18:07:55.646Z,22.40
2019-04-25T18:10:27.445Z,22.20
2019-04-25T18:12:58.790Z,22.10
2019-04-25T18:15:39.649Z,22.00
2019-04-25T18:18:20.065Z,21.80
2019-04-25T18:20:51.971Z,21.70
2019-04-25T18:23:51.860Z,21.50
2019-04-25T18:26:35.365Z,21.30
2019-04-25T18:29:10.370Z,21.00
2019-04-25T18:31:41.797Z,20.80
2019-04-25T18:34:18.959Z,20.60
2019-04-25T18:37:00.357Z,20.40
2019-04-25T18:39:39.828Z,20.30
2019-04-25T18:42:37.850Z,20.20
2019-04-25T18:45:12.966Z,20.10
2019-04-25T18:47:44.592Z,19.90
2019-04-25T18:50:18.363Z,19.80
2019-04-25T18:53:26.842Z,19.70
2019-04-25T18:56:10.467Z,19.70
2019-04-25T18:59:00.686Z,19.60
2019-04-25T19:01:50.793Z,19.40
2019-04-25T19:04:41.769Z,19.20
2019-04-25T19:07:22.512Z,19.10
2019-04-25T19:09:47.103Z,19.00
2019-04-25T19:12:19.370Z,18.90
2019-04-25T19:14:51.733Z,18.90
2019-04-25T19:17:23.794Z,18.80
2019-04-25T19:19:55.516Z,18.70
2019-04-25T19:22:27.298Z,18.60
2019-04-25T19:24:58.976Z,18.50
2019-04-25T19:27:31.100Z,18.40
2019-04-25T19:30:03.643Z,18.20
2019-04-25T19:32:36.433Z,18.10
2019-04-25T19:35:08.189Z,18.00
2019-04-25T19:37:40.561Z,18.00
2019-04-25T19:40:42.325Z,17.90
2019-04-25T19:43:22.022Z,17.80
2019-04-25T19:45:53.872Z,17.80
2019-04-25T19:48:25.967Z,17.70
2019-04-25T19:50:57.774Z,17.70
2019-04-25T19:53:29.447Z,17.70
2019-04-25T19:56:02.695Z,17.70
2019-04-25T19:58:34.441Z,17.60
2019-04-25T20:01:07.690Z,17.50
2019-04-25T20:03:53.559Z,17.30
2019-04-25T20:06:23.592Z,17.30
2019-04-25T20:09:14.075Z,17.20
2019-04-25T20:11:49.385Z,17.20
2019-04-25T20:14:21.342Z,17.10
2019-04-25T20:16:53.810Z,17.10
2019-04-25T20:19:25.477Z,16.90
2019-04-25T20:21:57.257Z,16.80
2019-04-25T20:24:29.057Z,16.70
2019-04-25T20:27:00.694Z,16.70
2019-04-25T20:29:32.544Z,16.60
2019-04-25T20:32:07.026Z,16.50
2019-04-25T20:34:38.439Z,16.50
2019-04-25T20:37:10.493Z,16.40
2019-04-25T20:39:42.281Z,16.40
2019-04-25T20:42:15.962Z,16.40
2019-04-25T20:44:51.695Z,16.40
2019-04-25T20:47:23.789Z,16.20
2019-04-25T20:49:55.363Z,16.20
2019-04-25T20:52:26.673Z,16.20
2019-04-25T20:54:57.970Z,16.10
2019-04-25T20:57:30.268Z,16.00
2019-04-25T21:00:01.541Z,16.00
2019-04-25T21:02:34.160Z,15.90
2019-04-25T21:05:05.580Z,15.80
2019-04-25T21:07:36.671Z,15.70
2019-04-25T21:10:08.090Z,15.70
2019-04-25T21:12:39.290Z,15.60
2019-04-25T21:15:28.651Z,15.60
2019-04-25T21:18:03.590Z,15.50
2019-04-25T21:20:34.948Z,15.50
2019-04-25T21:23:06.270Z,15.40
2019-04-25T21:25:37.719Z,15.40
2019-04-25T21:28:08.689Z,15.40
2019-04-25T21:33:31.663Z,15.20
2019-04-25T21:36:03.154Z,15.20
2019-04-25T21:38:35.454Z,15.10
2019-04-25T21:41:27.552Z,15.10
2019-04-25T21:44:03.373Z,15.00
2019-04-25T21:46:37.045Z,15.00
2019-04-25T21:49:09.179Z,14.90
2019-04-25T21:51:40.639Z,14.90
2019-04-25T21:54:11.842Z,14.70
2019-04-25T21:56:43.872Z,14.70
2019-04-25T21:59:16.288Z,14.60
2019-04-25T22:01:49.380Z,14.60
2019-04-25T22:04:22.415Z,14.50
2019-04-25T22:06:55.927Z,14.50
2019-04-25T22:09:30.481Z,14.50
2019-04-25T22:12:03.187Z,14.50
2019-04-25T22:14:36.283Z,14.40
2019-04-25T22:17:08.036Z,14.40
2019-04-25T22:19:40.081Z,14.30
2019-04-25T22:22:11.564Z,14.20
2019-04-25T22:24:43.275Z,14.30
2019-04-25T22:27:20.816Z,14.20
2019-04-25T22:29:58.821Z,14.20
2019-04-25T22:32:58.628Z,14.20
2019-04-25T22:35:49.762Z,14.20
2019-04-25T22:38:21.806Z,14.10
2019-04-25T22:40:53.588Z,14.00
2019-04-25T22:43:25.708Z,14.00
2019-04-25T22:45:57.301Z,13.90
2019-04-25T22:48:46.581Z,13.90
2019-04-25T22:51:17.975Z,13.80
2019-04-25T22:53:49.651Z,13.80
2019-04-25T22:56:20.882Z,13.80
2019-04-25T22:58:53.263Z,13.70
2019-04-25T23:01:35.129Z,13.70
2019-04-25T23:04:12.165Z,13.70
2019-04-25T23:06:43.775Z,13.60
2019-04-25T23:09:15.005Z,13.60
2019-04-25T23:11:46.424Z,13.60
2019-04-25T23:14:18.363Z,13.70
2019-04-25T23:16:51.117Z,13.60
2019-04-25T23:19:22.337Z,13.70
2019-04-25T23:21:53.870Z,13.60
2019-04-25T23:24:26.872Z,13.60
2019-04-25T23:27:16.727Z,13.50
2019-04-25T23:29:48.118Z,13.50
2019-04-25T23:32:19.499Z,13.40
2019-04-25T23:34:50.875Z,13.40
2019-04-25T23:37:21.967Z,13.30
2019-04-25T23:39:53.159Z,13.30
2019-04-25T23:42:24.237Z,13.30
2019-04-25T23:44:55.634Z,13.30
2019-04-25T23:47:27.976Z,13.20
2019-04-25T23:49:59.707Z,13.20
2019-04-25T23:52:30.908Z,13.10
2019-04-25T23:55:02.150Z,13.00
2019-04-25T23:57:33.697Z,13.00
